Login to view Products
 
Saturday, March 28, 2020 (21:08 UTC)
Abu Dhabi International Airport
Last Updated: 28-Mar-2020 (21:07Z)
Wind Dir/Speed: SE at 15 kt
Temperature: 29.1°C
Rel. Humidity: 31 %
Pressure: 1007.2 hPa
Visibility: 10000 m
ACTUALS:
  • METAR OMAA 282100Z 15013KT CAVOK 29/11 Q1007 NOSIG
  • TAF OMAA 281700Z 2818/3000 11010KT 7000 FEW030 PROB30 TEMPO 2819/2904 FEW030TCU BECMG 2822/2900 17016KT PROB40 TEMPO 2904/2913 17020G30KT 1500 BLDU PROB30 TEMPO 2917/3000 VRB22G32KT 2500 TSRA FEW040CB=
D:\Input Parser\Destinations\Final\17\OMAAL1800170027985332.txt
1